Time;durP1;ratioP1;P1;durP2;ratioP2;P2;SDS_P1;SDS_P2;PMS_P1;PMS_P2;Temp;Humidity;BMP_temperature;BMP_pressure;BME280_temperature;BME280_humidity;BME280_pressure;Samples;Min_cycle;Max_cycle;Signal;HPM_P1;HPM_P2
2021/01/15 04:12:24;;;;;;;2.33;1.98;;;-9.90;99.90;;;;;;4955047;28;20069;-71
2021/01/15 04:14:50;;;;;;;2.22;1.70;;;-9.80;99.90;;;;;;4956840;29;20031;-71
2021/01/15 04:17:16;;;;;;;1.73;1.60;;;-9.80;99.90;;;;;;4956598;28;20027;-71
2021/01/15 04:19:41;;;;;;;2.78;1.90;;;-9.80;99.90;;;;;;4956726;29;20035;-71
2021/01/15 04:22:07;;;;;;;2.03;1.75;;;-9.70;99.90;;;;;;4956745;28;20594;-71
2021/01/15 04:24:33;;;;;;;2.22;1.73;;;-9.70;99.90;;;;;;4956606;28;20050;-71
2021/01/15 04:26:59;;;;;;;2.95;1.52;;;-9.70;99.90;;;;;;4956262;29;20031;-71
2021/01/15 04:29:27;;;;;;;2.10;1.90;;;-9.60;99.90;;;;;;4956180;28;20114;-71
2021/01/15 04:31:53;;;;;;;1.77;1.67;;;-9.60;99.90;;;;;;4956322;29;20397;-71
2021/01/15 04:34:19;;;;;;;2.75;1.77;;;-9.60;99.90;;;;;;4956048;28;20023;-71
2021/01/15 04:36:45;;;;;;;2.03;1.85;;;-9.50;99.90;;;;;;4956302;28;20031;-71
2021/01/15 04:39:11;;;;;;;3.20;2.08;;;-9.50;99.90;;;;;;4956175;28;20034;-71
2021/01/15 04:41:37;;;;;;;2.70;2.05;;;-9.50;99.90;;;;;;4956472;28;20417;-71
2021/01/15 04:44:04;;;;;;;1.77;1.67;;;-9.50;99.90;;;;;;4956165;28;20028;-71
2021/01/15 04:46:29;;;;;;;2.70;1.88;;;-9.40;99.90;;;;;;4956326;28;20492;-71
2021/01/15 04:48:56;;;;;;;2.88;1.83;;;-9.40;99.90;;;;;;4956049;28;20102;-71
2021/01/15 04:51:24;;;;;;;2.78;1.90;;;-9.40;99.90;;;;;;4955805;28;20055;-71
2021/01/15 04:54:11;;;;;;;2.30;1.70;;;-9.40;99.90;;;;;;4956076;28;20027;-71
2021/01/15 04:56:47;;;;;;;1.80;1.70;;;-9.40;99.90;;;;;;4955780;28;20027;-71
2021/01/15 04:59:14;;;;;;;2.92;1.83;;;-9.40;99.90;;;;;;4955751;28;20483;-71
2021/01/15 05:01:42;;;;;;;1.95;1.75;;;-9.50;99.90;;;;;;4955691;29;20038;-71
2021/01/15 05:04:10;;;;;;;1.75;1.42;;;-9.40;99.90;;;;;;4955662;28;20582;-71
2021/01/15 05:06:49;;;;;;;2.08;1.73;;;-9.40;99.90;;;;;;4954522;28;20039;-71
2021/01/15 05:09:19;;;;;;;3.13;1.58;;;-9.50;99.90;;;;;;4955581;29;20055;-72
2021/01/15 05:11:46;;;;;;;1.75;1.48;;;-9.50;99.90;;;;;;4955347;28;20519;-72
2021/01/15 05:14:14;;;;;;;2.75;1.88;;;-9.50;99.90;;;;;;4955374;29;20082;-72
2021/01/15 05:16:42;;;;;;;2.28;1.67;;;-9.50;99.90;;;;;;4955364;28;20054;-72
2021/01/15 05:19:09;;;;;;;2.28;1.60;;;-9.40;99.90;;;;;;4955601;28;20032;-72
2021/01/15 05:21:36;;;;;;;2.08;1.83;;;-9.40;99.90;;;;;;4955378;28;20086;-71
2021/01/15 05:24:04;;;;;;;1.65;1.55;;;-9.40;99.90;;;;;;4955342;28;20023;-71
2021/01/15 05:26:33;;;;;;;2.15;1.60;;;-9.40;99.90;;;;;;4955130;28;20475;-72
2021/01/15 05:29:00;;;;;;;1.58;1.48;;;-9.40;99.90;;;;;;4955248;29;20024;-70
2021/01/15 05:31:26;;;;;;;2.13;1.92;;;-9.40;99.90;;;;;;4955070;28;20038;-70
2021/01/15 05:34:06;;;;;;;3.30;2.00;;;-9.40;99.90;;;;;;4955150;29;20115;-73
2021/01/15 05:36:34;;;;;;;2.50;1.90;;;-9.30;99.90;;;;;;4954925;28;20487;-72
2021/01/15 05:39:20;;;;;;;1.83;1.67;;;-9.30;99.90;;;;;;4955002;28;20400;-73
2021/01/15 05:41:48;;;;;;;2.40;1.80;;;-9.30;99.90;;;;;;4955069;29;20062;-73
2021/01/15 05:44:30;;;;;;;1.63;1.52;;;-9.00;99.90;;;;;;4954920;28;20026;-73
2021/01/15 05:46:58;;;;;;;1.67;1.52;;;-8.90;99.90;;;;;;4954973;28;20669;-75
2021/01/15 05:49:24;;;;;;;2.35;2.00;;;-8.60;99.90;;;;;;4954713;29;20148;-74
2021/01/15 05:51:50;;;;;;;1.73;1.63;;;-8.60;99.90;;;;;;4954871;29;20064;-73
2021/01/15 05:54:32;;;;;;;2.92;1.67;;;-8.70;99.90;;;;;;4954917;28;20034;-74
2021/01/15 05:57:00;;;;;;;4.85;1.65;;;-8.70;99.90;;;;;;4954798;29;20535;-73
2021/01/15 05:59:26;;;;;;;2.42;1.85;;;-8.70;99.90;;;;;;4954126;29;20620;-72
2021/01/15 06:02:19;;;;;;;2.85;2.00;;;-8.70;99.90;;;;;;4954650;29;20062;-74
2021/01/15 06:04:45;;;;;;;2.15;1.77;;;-8.70;99.90;;;;;;4952182;29;20031;-73
2021/01/15 06:07:11;;;;;;;2.28;1.70;;;-8.70;99.90;;;;;;4954440;29;20027;-76
2021/01/15 06:09:38;;;;;;;2.15;1.70;;;-8.70;99.90;;;;;;4953508;29;20369;-76
2021/01/15 06:12:05;;;;;;;2.65;1.42;;;-8.60;99.90;;;;;;4953609;28;20051;-76
2021/01/15 06:14:31;;;;;;;3.95;1.98;;;-8.60;99.90;;;;;;4954012;29;20027;-76
2021/01/15 06:17:04;;;;;;;3.38;2.03;;;-8.50;99.90;;;;;;4953927;28;20034;-76
2021/01/15 06:19:48;;;;;;;2.80;1.67;;;-8.50;99.90;;;;;;4953954;29;20404;-76
2021/01/15 06:22:35;;;;;;;2.83;1.90;;;-8.50;99.90;;;;;;4954475;29;20123;-73
2021/01/15 06:25:06;;;;;;;2.65;1.70;;;-8.40;99.90;;;;;;4954531;28;20035;-72
2021/01/15 06:27:39;;;;;;;2.30;1.75;;;-8.40;99.90;;;;;;4954054;29;20038;-81
2021/01/15 06:30:27;;;;;;;2.58;1.75;;;-8.30;99.90;;;;;;4954319;29;20507;-76
2021/01/15 06:32:54;;;;;;;1.83;1.50;;;-8.20;99.90;;;;;;4953739;29;20459;-76
2021/01/15 06:35:26;;;;;;;4.03;1.50;;;-8.10;99.90;;;;;;4954259;29;20102;-76
2021/01/15 06:38:03;;;;;;;1.98;1.77;;;-8.10;99.90;;;;;;4953912;29;20138;-76
2021/01/15 06:40:50;;;;;;;2.00;1.65;;;-8.10;99.90;;;;;;4953940;29;20035;-76
2021/01/15 06:43:30;;;;;;;2.80;1.55;;;-8.10;99.90;;;;;;4953588;28;20560;-76
2021/01/15 06:46:00;;;;;;;2.03;1.55;;;-8.10;99.90;;;;;;4954303;29;20171;-76
2021/01/15 06:48:27;;;;;;;2.20;1.65;;;-8.10;99.90;;;;;;4953824;29;20027;-76
2021/01/15 06:50:55;;;;;;;3.13;1.60;;;-8.00;99.90;;;;;;4954010;29;20506;-77
2021/01/15 06:53:24;;;;;;;2.53;1.73;;;-8.00;99.90;;;;;;4953854;29;20031;-76
2021/01/15 06:56:00;;;;;;;1.67;1.58;;;-7.90;99.90;;;;;;4953832;29;20028;-76
2021/01/15 06:58:29;;;;;;;1.90;1.50;;;-7.90;99.90;;;;;;4953839;29;20039;-77
2021/01/15 07:01:03;;;;;;;2.47;1.83;;;-7.80;99.90;;;;;;4953840;29;20129;-76
2021/01/15 07:04:10;;;;;;;1.52;1.42;;;-7.80;99.90;;;;;;4954054;29;20110;-77
2021/01/15 07:06:37;;;;;;;1.60;1.50;;;-7.20;99.90;;;;;;4925012;28;20035;-77
2021/01/15 07:09:06;;;;;;;2.35;1.45;;;-6.70;99.90;;;;;;4954173;29;20421;-76
2021/01/15 07:11:33;;;;;;;1.30;1.20;;;-6.90;99.90;;;;;;4953715;29;20410;-73
2021/01/15 07:14:01;;;;;;;2.40;1.40;;;-7.00;99.90;;;;;;4953722;29;20034;-77
2021/01/15 07:16:40;;;;;;;1.67;1.58;;;-7.20;99.90;;;;;;4953794;29;20027;-72
2021/01/15 07:19:05;;;;;;;1.60;1.50;;;-7.20;99.90;;;;;;4956729;29;20024;-75
2021/01/15 07:21:36;;;;;;;1.60;1.45;;;-7.30;99.90;;;;;;4953172;29;20042;-74
2021/01/15 07:24:09;;;;;;;;;;;-7.20;99.90;;;;;;4953695;29;20023;-74
2021/01/15 07:26:41;;;;;;;3.42;2.22;;;-7.20;99.90;;;;;;4953025;28;19953;-74
2021/01/15 07:29:16;;;;;;;2.53;1.80;;;-7.20;99.90;;;;;;4955290;28;20499;-73
2021/01/15 07:31:47;;;;;;;2.85;1.45;;;-7.10;99.90;;;;;;4957333;29;20028;-74
2021/01/15 07:34:16;;;;;;;1.50;1.40;;;-7.10;99.90;;;;;;4957331;29;20027;-74
2021/01/15 07:36:42;;;;;;;1.33;1.23;;;-7.10;99.90;;;;;;4957486;29;20027;-76
2021/01/15 07:39:10;;;;;;;1.63;1.50;;;-7.10;99.90;;;;;;4957175;29;20471;-75
2021/01/15 07:41:40;;;;;;;1.52;1.40;;;-7.00;99.90;;;;;;4956750;29;20035;-76
2021/01/15 07:44:22;;;;;;;2.03;1.70;;;-7.00;99.90;;;;;;4956598;29;20019;-76
2021/01/15 07:46:52;;;;;;;2.28;1.63;;;-6.90;99.90;;;;;;4956793;28;20029;-77
2021/01/15 07:49:18;;;;;;;1.85;1.73;;;-6.90;99.90;;;;;;4956591;29;20034;-79
2021/01/15 07:52:07;;;;;;;2.05;1.77;;;-6.80;99.90;;;;;;4956923;28;20024;-74
2021/01/15 07:54:49;;;;;;;2.47;1.67;;;-6.80;99.90;;;;;;4956749;28;20035;-74
2021/01/15 07:57:19;;;;;;;3.08;1.70;;;-6.80;99.90;;;;;;4956976;29;20028;-75
2021/01/15 07:59:45;;;;;;;1.50;1.40;;;-6.70;99.90;;;;;;4956817;29;20039;-78
2021/01/15 08:02:15;;;;;;;1.90;1.70;;;-6.70;99.90;;;;;;4956804;29;20114;-78
2021/01/15 08:04:40;;;;;;;1.38;1.23;;;-6.60;99.90;;;;;;4956566;29;20031;-76
2021/01/15 08:07:28;;;;;;;2.63;1.83;;;-6.60;99.90;;;;;;4956533;29;20102;-76
2021/01/15 08:09:54;;;;;;;1.92;1.40;;;-6.60;99.90;;;;;;4955815;29;20027;-76
2021/01/15 08:12:20;;;;;;;3.05;1.70;;;-6.60;99.90;;;;;;4956095;29;20415;-76
2021/01/15 08:14:46;;;;;;;2.03;1.48;;;-6.60;99.90;;;;;;4956625;28;20035;-73
2021/01/15 08:17:14;;;;;;;6.63;2.15;;;-6.50;99.90;;;;;;4956187;28;20464;-71
2021/01/15 08:19:41;;;;;;;3.55;2.17;;;-6.50;99.90;;;;;;4942702;29;20087;-70
2021/01/15 08:22:14;;;;;;;2.83;2.20;;;-5.60;99.90;;;;;;4937364;29;20056;-71
2021/01/15 08:24:47;;;;;;;2.13;1.90;;;-5.50;99.90;;;;;;4937468;29;20031;-71
2021/01/15 08:27:20;;;;;;;1.98;1.60;;;-5.00;99.90;;;;;;4937207;29;20484;-73
2021/01/15 08:29:47;;;;;;;4.13;1.50;;;-5.20;99.90;;;;;;4937397;29;20083;-73
2021/01/15 08:32:13;;;;;;;1.70;1.60;;;-5.50;99.90;;;;;;4937187;29;20159;-71
2021/01/15 08:34:39;;;;;;;1.80;1.50;;;-5.70;99.90;;;;;;4936754;29;20528;-71
2021/01/15 08:37:16;;;;;;;2.25;1.30;;;-5.90;99.90;;;;;;4937084;29;20091;-71
2021/01/15 08:39:54;;;;;;;2.10;1.38;;;-5.90;99.90;;;;;;4936900;29;20039;-71
2021/01/15 08:42:21;;;;;;;1.92;1.38;;;-6.00;99.90;;;;;;4937245;29;20024;-71
2021/01/15 08:44:48;;;;;;;1.30;1.20;;;-6.00;99.90;;;;;;4936684;29;20480;-71
2021/01/15 08:47:17;;;;;;;1.65;1.55;;;-6.10;99.90;;;;;;4936860;29;20031;-71
2021/01/15 08:49:59;;;;;;;1.77;1.50;;;-6.10;99.90;;;;;;4936888;29;20059;-71
2021/01/15 08:52:30;;;;;;;2.05;1.50;;;-6.00;99.90;;;;;;4936769;29;20032;-71
2021/01/15 08:54:59;;;;;;;1.60;1.50;;;-6.00;99.90;;;;;;4936930;29;20435;-71
2021/01/15 08:57:28;;;;;;;1.55;1.45;;;-6.00;99.90;;;;;;4937049;29;20513;-71
2021/01/15 08:59:54;;;;;;;2.00;1.67;;;-6.00;99.90;;;;;;4936377;29;20031;-71
2021/01/15 09:02:21;;;;;;;2.08;1.50;;;-6.00;99.90;;;;;;4936672;29;20024;-73
2021/01/15 09:04:48;;;;;;;3.65;1.42;;;-6.00;99.90;;;;;;4936217;29;20024;-72
2021/01/15 09:07:15;;;;;;;1.50;1.40;;;-5.90;99.90;;;;;;4936488;29;20056;-72
2021/01/15 09:09:42;;;;;;;1.52;1.30;;;-5.90;99.90;;;;;;4936347;29;20042;-72
2021/01/15 09:12:09;;;;;;;3.25;1.60;;;-5.90;99.90;;;;;;4939683;29;20047;-71
2021/01/15 09:14:36;;;;;;;1.50;1.40;;;-5.80;99.90;;;;;;4955111;29;20019;-73
2021/01/15 09:17:07;;;;;;;1.50;1.40;;;-4.20;99.90;;;;;;4955210;29;20058;-78
2021/01/15 09:19:34;;;;;;;2.03;1.80;;;-4.40;99.90;;;;;;4955307;29;20091;-78
2021/01/15 09:22:02;;;;;;;3.17;1.40;;;-4.70;99.90;;;;;;4955473;29;20035;-73
2021/01/15 09:24:32;;;;;;;2.22;1.42;;;-4.90;99.90;;;;;;4955588;29;20047;-73
2021/01/15 09:26:59;;;;;;;1.45;1.35;;;-5.00;99.90;;;;;;4950657;29;20709;-73
2021/01/15 09:29:25;;;;;;;1.30;1.20;;;-4.30;99.90;;;;;;4936072;29;20106;-74
2021/01/15 09:31:51;;;;;;;1.55;1.40;;;-4.30;99.90;;;;;;4935965;29;20035;-74
2021/01/15 09:34:18;;;;;;;1.58;1.48;;;-4.70;99.90;;;;;;4934514;29;20028;-73
2021/01/15 09:36:46;;;;;;;2.60;1.50;;;-4.90;99.90;;;;;;4935505;29;20028;-74
2021/01/15 09:39:14;;;;;;;2.83;1.88;;;-5.10;99.90;;;;;;4953792;29;20038;-74
2021/01/15 09:41:44;;;;;;;2.33;1.48;;;-5.20;99.90;;;;;;4954142;29;20434;-74
2021/01/15 09:44:12;;;;;;;3.63;1.55;;;-5.30;99.90;;;;;;4954404;29;20387;-69
2021/01/15 09:46:38;;;;;;;1.50;1.40;;;-5.40;99.90;;;;;;4952554;29;20055;-74
2021/01/15 09:49:04;;;;;;;1.98;1.45;;;-5.40;99.90;;;;;;4954223;29;20159;-74
2021/01/15 09:51:29;;;;;;;2.55;1.73;;;-5.40;99.90;;;;;;4953506;28;20031;-75
2021/01/15 09:53:56;;;;;;;1.75;1.60;;;-5.40;99.90;;;;;;4952767;29;20026;-76
2021/01/15 09:56:28;;;;;;;1.58;1.48;;;-5.40;99.90;;;;;;4954677;29;20024;-76
2021/01/15 09:58:58;;;;;;;1.70;1.60;;;-5.40;99.90;;;;;;4954636;29;20031;-77
2021/01/15 10:01:25;;;;;;;1.70;1.48;;;-5.40;99.90;;;;;;4954680;29;20070;-78
2021/01/15 10:03:52;;;;;;;2.22;1.52;;;-5.40;99.90;;;;;;4954500;29;20472;-76
2021/01/15 10:06:19;;;;;;;2.15;1.67;;;-5.30;99.90;;;;;;4954803;29;20391;-77
2021/01/15 10:08:45;;;;;;;1.55;1.45;;;-5.30;99.90;;;;;;4954318;29;20370;-78
2021/01/15 10:11:33;;;;;;;1.42;1.33;;;-5.30;99.90;;;;;;4954416;29;20039;-77
2021/01/15 10:14:01;;;;;;;1.55;1.45;;;-5.30;99.90;;;;;;4954377;28;20035;-74
2021/01/15 10:16:27;;;;;;;1.45;1.35;;;-5.30;99.90;;;;;;4952966;29;20439;-77
2021/01/15 10:18:54;;;;;;;1.60;1.50;;;-5.30;99.90;;;;;;4956842;28;20027;-75
2021/01/15 10:21:28;;;;;;;3.85;2.17;;;-5.30;99.90;;;;;;4960627;29;20035;-74
2021/01/15 10:23:58;;;;;;;1.73;1.58;;;-5.20;99.90;;;;;;4954199;29;20436;-75
2021/01/15 10:26:30;;;;;;;1.58;1.15;;;-5.20;99.90;;;;;;4954199;29;20027;-76
2021/01/15 10:28:58;;;;;;;1.50;1.38;;;-5.20;99.90;;;;;;4953934;29;20062;-76
2021/01/15 10:31:27;;;;;;;1.92;1.35;;;-5.10;99.90;;;;;;4953621;29;20067;-76
2021/01/15 10:33:55;;;;;;;2.13;1.70;;;-5.10;99.90;;;;;;4953702;29;20038;-76
2021/01/15 10:36:21;;;;;;;1.88;1.63;;;-5.10;99.90;;;;;;4953572;29;20024;-75
2021/01/15 10:38:47;;;;;;;2.22;1.73;;;-5.10;99.90;;;;;;4953512;29;20015;-77
2021/01/15 10:41:13;;;;;;;1.58;1.30;;;-5.10;99.90;;;;;;4953549;29;20498;-76
2021/01/15 10:43:39;;;;;;;3.55;1.33;;;-5.10;99.90;;;;;;4953357;29;20042;-74
2021/01/15 10:46:05;;;;;;;1.30;1.20;;;-5.10;99.90;;;;;;4953571;28;20467;-72
2021/01/15 10:48:31;;;;;;;1.90;1.67;;;-5.10;99.90;;;;;;4953638;29;20039;-71
2021/01/15 10:50:57;;;;;;;4.53;1.67;;;-5.00;99.90;;;;;;4953167;29;20395;-71
2021/01/15 10:53:23;;;;;;;2.05;1.60;;;-5.00;99.90;;;;;;4953250;29;20071;-70
2021/01/15 10:55:49;;;;;;;2.05;1.60;;;-5.00;99.90;;;;;;4953671;29;20026;-70
2021/01/15 10:58:18;;;;;;;2.03;1.50;;;-4.90;99.90;;;;;;4953803;29;20032;-71
2021/01/15 11:00:43;;;;;;;2.13;1.80;;;-4.90;99.90;;;;;;4953536;29;20035;-71
2021/01/15 11:03:09;;;;;;;2.65;1.40;;;-4.90;99.90;;;;;;4953924;28;20027;-71
2021/01/15 11:05:35;;;;;;;2.10;1.42;;;-4.90;99.90;;;;;;4957743;29;20103;-71
2021/01/15 11:08:01;;;;;;;2.10;1.60;;;-4.90;99.90;;;;;;4957731;29;20074;-71
2021/01/15 11:10:26;;;;;;;1.85;1.50;;;-4.80;99.90;;;;;;4957960;29;20102;-71
2021/01/15 11:12:59;;;;;;;1.77;1.67;;;-4.80;99.90;;;;;;4956623;29;20035;-71
2021/01/15 11:15:25;;;;;;;1.95;1.48;;;-4.80;99.90;;;;;;4957106;29;20027;-70
2021/01/15 11:17:52;;;;;;;2.08;1.58;;;-4.70;99.90;;;;;;4958676;29;20074;-70
2021/01/15 11:20:19;;;;;;;1.50;1.40;;;-4.70;99.90;;;;;;4957647;29;20038;-70
2021/01/15 11:22:45;;;;;;;1.50;1.40;;;-4.70;99.90;;;;;;4957533;29;20031;-71
2021/01/15 11:25:11;;;;;;;2.70;1.80;;;-4.60;99.90;;;;;;4957469;29;20027;-70
2021/01/15 11:27:37;;;;;;;3.13;1.55;;;-4.60;99.90;;;;;;4957481;29;20029;-71
2021/01/15 11:30:04;;;;;;;42.60;12.93;;;-4.60;99.90;;;;;;4955366;28;20122;-71
2021/01/15 11:32:29;;;;;;;4.68;2.50;;;-4.60;99.90;;;;;;4955903;28;20031;-71
2021/01/15 11:34:55;;;;;;;3.25;1.52;;;-4.60;99.90;;;;;;4955068;28;20031;-71
2021/01/15 11:37:23;;;;;;;4.47;2.03;;;-4.60;99.90;;;;;;4953689;29;20496;-70
2021/01/15 11:39:49;;;;;;;1.85;1.70;;;-4.50;99.90;;;;;;4956253;29;20094;-70
2021/01/15 11:42:16;;;;;;;1.42;1.27;;;-4.50;99.90;;;;;;4956279;29;20015;-71
2021/01/15 11:44:41;;;;;;;2.45;1.50;;;-4.50;99.90;;;;;;4956409;29;20530;-71
2021/01/15 11:47:07;;;;;;;1.77;1.30;;;-4.50;99.90;;;;;;4956710;29;20032;-71
2021/01/15 11:49:33;;;;;;;1.25;1.15;;;-4.40;99.90;;;;;;4956518;29;20027;-71
2021/01/15 11:51:59;;;;;;;1.52;1.42;;;-4.40;99.90;;;;;;4956107;29;20110;-69
2021/01/15 11:54:28;;;;;;;1.60;1.40;;;-4.40;99.90;;;;;;4956531;29;20045;-72
2021/01/15 11:56:54;;;;;;;1.38;1.30;;;-4.40;99.90;;;;;;4956444;29;20068;-71
2021/01/15 11:59:20;;;;;;;1.33;1.20;;;-4.40;99.90;;;;;;4956682;28;20043;-71
2021/01/15 12:01:46;;;;;;;1.92;1.60;;;-4.40;99.90;;;;;;4956034;29;20058;-71
2021/01/15 12:04:12;;;;;;;1.80;1.60;;;-4.30;99.90;;;;;;4956450;29;20031;-71
2021/01/15 12:06:38;;;;;;;1.33;1.23;;;-4.30;99.90;;;;;;4956579;28;20114;-71
2021/01/15 12:09:04;;;;;;;1.90;1.40;;;-4.30;99.90;;;;;;4956233;28;20539;-71
2021/01/15 12:11:30;;;;;;;4.30;1.35;;;-4.30;99.90;;;;;;4955996;28;20055;-71
2021/01/15 12:13:56;;;;;;;2.47;1.63;;;-4.30;99.90;;;;;;4955934;28;20094;-71
2021/01/15 12:16:23;;;;;;;1.58;1.35;;;-4.30;99.90;;;;;;4956298;28;20114;-71
2021/01/15 12:18:49;;;;;;;3.90;1.60;;;-4.30;99.90;;;;;;4956171;28;20415;-71
2021/01/15 12:21:19;;;;;;;2.20;1.65;;;-4.30;99.90;;;;;;4955740;28;20033;-70
2021/01/15 12:23:45;;;;;;;2.92;1.95;;;-4.20;99.90;;;;;;4955626;29;20023;-71
2021/01/15 12:26:11;;;;;;;1.98;1.30;;;-4.20;99.90;;;;;;4956080;29;20035;-73
2021/01/15 12:28:36;;;;;;;1.63;1.35;;;-4.20;99.90;;;;;;4957129;29;20499;-73
2021/01/15 12:31:03;;;;;;;3.55;1.90;;;-4.20;99.90;;;;;;4955753;29;20051;-72
2021/01/15 12:33:29;;;;;;;4.13;1.65;;;-4.20;99.90;;;;;;4955938;29;20030;-71
2021/01/15 12:35:54;;;;;;;5.93;2.95;;;-3.80;99.90;;;;;;4955770;29;20467;-71
2021/01/15 12:38:22;;;;;;;3.67;1.83;;;-2.50;99.90;;;;;;4956072;29;20035;-75
2021/01/15 12:40:52;;;;;;;4.03;2.35;;;-2.80;99.90;;;;;;4955645;29;20128;-75
2021/01/15 12:43:19;;;;;;;2.83;2.15;;;-3.20;99.90;;;;;;4955727;29;20055;-75
2021/01/15 12:45:47;;;;;;;2.78;1.70;;;-3.50;99.90;;;;;;4955664;29;20054;-75
2021/01/15 12:48:15;;;;;;;3.00;1.95;;;-3.60;99.90;;;;;;4955769;29;20115;-72
2021/01/15 12:50:42;;;;;;;2.63;1.60;;;-3.70;99.90;;;;;;4955166;29;20487;-77
2021/01/15 12:53:08;;;;;;;2.05;1.45;;;-3.70;99.90;;;;;;4955917;28;20062;-77
2021/01/15 12:55:34;;;;;;;2.70;1.80;;;-3.20;99.90;;;;;;4956086;29;20097;-78
2021/01/15 12:58:01;;;;;;;2.03;1.35;;;-2.40;99.90;;;;;;4955858;29;20162;-77
2021/01/15 13:00:28;;;;;;;1.70;1.35;;;-2.10;99.90;;;;;;4956160;29;20050;-78
2021/01/15 13:02:53;;;;;;;1.52;1.35;;;-1.70;99.90;;;;;;4955527;28;20027;-77
2021/01/15 13:05:19;;;;;;;3.28;1.42;;;-1.30;99.90;;;;;;4955972;29;20534;-78
2021/01/15 13:07:46;;;;;;;1.55;1.42;;;-1.00;99.90;;;;;;4955383;29;20031;-77
2021/01/15 13:10:12;;;;;;;3.08;1.38;;;-0.90;99.90;;;;;;4955401;29;20027;-79
2021/01/15 13:12:39;;;;;;;2.05;1.40;;;-0.80;99.90;;;;;;4954736;28;20641;-72
2021/01/15 13:15:10;;;;;;;1.45;1.20;;;-0.70;99.90;;;;;;4955119;29;20027;-80
2021/01/15 13:17:53;;;;;;;2.13;1.27;;;-0.30;99.90;;;;;;4955150;29;20503;-78
2021/01/15 13:20:20;;;;;;;1.23;1.13;;;-0.30;99.90;;;;;;4955238;29;20065;-78
2021/01/15 13:22:46;;;;;;;2.30;1.00;;;-0.40;99.90;;;;;;4954957;29;20031;-78
2021/01/15 13:25:12;;;;;;;1.40;1.30;;;-0.60;99.90;;;;;;4954984;29;20508;-78
2021/01/15 13:27:44;;;;;;;2.13;1.20;;;-0.40;99.90;;;;;;4953994;28;20031;-74
2021/01/15 13:30:10;;;;;;;1.38;1.00;;;-0.50;99.90;;;;;;4956336;29;20114;-79
2021/01/15 13:32:36;;;;;;;1.13;1.02;;;-0.90;99.90;;;;;;4949032;29;20040;-78
2021/01/15 13:35:03;;;;;;;1.63;1.10;;;-1.40;99.90;;;;;;4954708;29;20027;-81
2021/01/15 13:37:36;;;;;;;1.40;1.27;;;-1.80;99.90;;;;;;4954958;29;20031;-82
2021/01/15 13:40:10;;;;;;;2.10;1.60;;;-2.10;99.90;;;;;;4954579;29;20039;-82
2021/01/15 13:42:36;;;;;;;1.60;1.23;;;-2.20;99.90;;;;;;4954211;29;20027;-79
2021/01/15 13:45:04;;;;;;;1.48;1.13;;;-2.40;99.90;;;;;;4954811;28;20070;-79
2021/01/15 13:47:30;;;;;;;1.23;1.13;;;-2.50;99.90;;;;;;4954670;28;20023;-80
2021/01/15 13:49:56;;;;;;;3.10;1.30;;;-2.50;99.90;;;;;;4954527;28;20038;-83
2021/01/15 13:52:22;;;;;;;1.63;1.40;;;-2.60;99.90;;;;;;4953100;29;20027;-79
2021/01/15 13:54:47;;;;;;;2.45;1.23;;;-2.60;99.90;;;;;;4953715;29;20408;-82
2021/01/15 13:57:13;;;;;;;1.08;1.00;;;-2.70;99.90;;;;;;4954457;29;20089;-79
2021/01/15 13:59:39;;;;;;;1.48;1.13;;;-2.70;99.90;;;;;;4954523;29;20435;-80
2021/01/15 14:02:04;;;;;;;1.55;1.00;;;-2.80;99.90;;;;;;4953090;28;20046;-78
2021/01/15 14:04:30;;;;;;;1.80;1.33;;;-2.80;99.90;;;;;;4954321;29;20396;-81
2021/01/15 14:06:56;;;;;;;1.27;1.17;;;-2.80;99.90;;;;;;4954269;28;20031;-80
2021/01/15 14:09:22;;;;;;;1.40;1.30;;;-2.80;99.90;;;;;;4954227;28;20026;-79
2021/01/15 14:11:52;;;;;;;1.48;1.23;;;-2.90;99.90;;;;;;4953733;29;20093;-81
2021/01/15 14:14:17;;;;;;;3.40;1.33;;;-2.90;99.90;;;;;;4953193;29;20019;-80
2021/01/15 14:16:43;;;;;;;1.50;1.10;;;-2.90;99.90;;;;;;4954021;28;20123;-81
2021/01/15 14:19:09;;;;;;;2.88;1.10;;;-2.90;99.90;;;;;;4954127;29;20027;-79
2021/01/15 14:21:34;;;;;;;1.30;1.00;;;-2.90;99.90;;;;;;4953827;28;20524;-79
2021/01/15 14:24:00;;;;;;;1.40;1.20;;;-2.90;99.90;;;;;;4953903;29;20102;-80
2021/01/15 14:26:26;;;;;;;1.55;1.33;;;-2.90;99.90;;;;;;4953950;29;20487;-78
2021/01/15 14:28:56;;;;;;;1.48;1.38;;;-3.00;99.90;;;;;;4953980;29;20026;-78
2021/01/15 14:31:22;;;;;;;1.50;1.40;;;-2.90;99.90;;;;;;4954161;29;20569;-78
2021/01/15 14:33:49;;;;;;;1.67;1.35;;;-3.00;99.90;;;;;;4953751;29;20027;-78
2021/01/15 14:36:14;;;;;;;1.52;1.30;;;-3.00;99.90;;;;;;4953832;28;20027;-78
2021/01/15 14:38:40;;;;;;;1.60;1.40;;;-3.00;99.90;;;;;;4954050;28;20023;-78
2021/01/15 14:41:06;;;;;;;1.77;1.40;;;-3.00;99.90;;;;;;4953280;29;20119;-79
2021/01/15 14:43:32;;;;;;;1.30;1.20;;;-3.00;99.90;;;;;;4953427;29;20019;-74
2021/01/15 14:45:58;;;;;;;1.58;1.38;;;-3.00;99.90;;;;;;4953071;29;20035;-73
2021/01/15 14:48:24;;;;;;;1.30;1.20;;;-3.00;99.90;;;;;;4952178;29;20036;-73
2021/01/15 14:50:49;;;;;;;1.73;1.25;;;-3.00;99.90;;;;;;4953066;28;20054;-73
2021/01/15 14:53:21;;;;;;;1.30;1.20;;;-3.00;99.90;;;;;;4953641;28;20110;-74
2021/01/15 14:55:47;;;;;;;2.03;1.17;;;-3.00;99.90;;;;;;4952947;29;20410;-73
2021/01/15 14:58:13;;;;;;;2.17;1.42;;;-3.00;99.90;;;;;;4953183;29;20035;-73
2021/01/15 15:00:38;;;;;;;4.40;1.40;;;-3.00;99.90;;;;;;4967382;28;20035;-73
2021/01/15 15:03:04;;;;;;;1.35;1.23;;;-3.00;99.90;;;;;;4953067;28;20047;-74
2021/01/15 15:05:30;;;;;;;1.30;1.20;;;-3.00;99.90;;;;;;4953186;28;20114;-73
2021/01/15 15:07:56;;;;;;;2.88;1.40;;;-2.90;99.90;;;;;;4953425;28;20042;-73
2021/01/15 15:10:22;;;;;;;1.70;1.25;;;-3.00;99.90;;;;;;4953399;29;20061;-74
2021/01/15 15:12:53;;;;;;;1.10;1.00;;;-3.00;99.90;;;;;;4953068;29;20105;-75
2021/01/15 15:15:19;;;;;;;1.60;1.50;;;-3.00;99.90;;;;;;4953117;29;20035;-73
2021/01/15 15:17:46;;;;;;;1.52;1.42;;;-3.00;99.90;;;;;;4951748;29;20023;-73
2021/01/15 15:20:16;;;;;;;1.65;1.20;;;-3.00;99.90;;;;;;4951644;29;20415;-73
2021/01/15 15:22:43;;;;;;;1.30;1.20;;;-3.00;99.90;;;;;;4953368;28;20035;-75
2021/01/15 15:25:11;;;;;;;1.40;1.10;;;-3.00;99.90;;;;;;4962176;29;20031;-74
2021/01/15 15:27:37;;;;;;;1.20;1.10;;;-3.00;99.90;;;;;;4953673;29;20019;-74
2021/01/15 15:30:04;;;;;;;1.30;1.20;;;-2.90;99.90;;;;;;4953258;29;20046;-74
2021/01/15 15:32:29;;;;;;;2.08;1.30;;;-3.00;99.90;;;;;;4953095;29;20031;-73
2021/01/15 15:34:55;;;;;;;2.47;1.40;;;-2.90;99.90;;;;;;4951756;29;20501;-74
2021/01/15 15:37:21;;;;;;;1.52;1.27;;;-3.00;99.90;;;;;;4952570;29;20544;-73
2021/01/15 15:39:47;;;;;;;2.70;1.75;;;-3.00;99.90;;;;;;4951944;29;20046;-75
2021/01/15 15:42:13;;;;;;;2.45;1.48;;;-3.00;99.90;;;;;;4953690;29;20031;-74
2021/01/15 15:44:39;;;;;;;1.60;1.15;;;-3.00;99.90;;;;;;4953724;28;20031;-73
2021/01/15 15:47:05;;;;;;;1.40;1.30;;;-3.00;99.90;;;;;;4953647;29;20039;-73
2021/01/15 15:49:30;;;;;;;1.55;1.45;;;-3.00;99.90;;;;;;4954349;28;20086;-73
2021/01/15 15:51:56;;;;;;;1.05;1.02;;;-3.00;99.90;;;;;;4956960;29;20016;-73
2021/01/15 15:54:22;;;;;;;1.40;1.30;;;-3.00;99.90;;;;;;4956950;29;20031;-75
2021/01/15 15:56:54;;;;;;;1.42;1.30;;;-3.00;99.90;;;;;;4954035;29;20058;-72
2021/01/15 15:59:20;;;;;;;1.67;1.20;;;-3.00;99.90;;;;;;4955593;29;20031;-72
2021/01/15 16:01:46;;;;;;;2.72;1.30;;;-3.00;99.90;;;;;;4954256;29;20106;-73
2021/01/15 16:04:12;;;;;;;4.57;2.22;;;-3.00;99.90;;;;;;4956462;29;20027;-73
2021/01/15 16:06:40;;;;;;;2.55;2.10;;;-3.00;99.90;;;;;;4956131;29;20031;-73
2021/01/15 16:09:06;;;;;;;8.13;3.55;;;-3.00;99.90;;;;;;4956030;29;20135;-75
2021/01/15 16:11:32;;;;;;;8.23;4.05;;;-3.10;99.90;;;;;;4956101;29;20123;-72
2021/01/15 16:13:58;;;;;;;2.80;2.13;;;-3.10;99.90;;;;;;4956117;29;20503;-70
2021/01/15 16:16:30;;;;;;;4.05;2.33;;;-2.90;99.90;;;;;;4955893;29;20032;-72
2021/01/15 16:18:56;;;;;;;4.00;3.30;;;-2.60;99.90;;;;;;4955928;29;20032;-77
2021/01/15 16:21:23;;;;;;;5.85;3.95;;;-2.50;99.90;;;;;;4956194;29;20167;-71
2021/01/15 16:23:49;;;;;;;4.53;3.10;;;-2.60;99.90;;;;;;4956155;29;20038;-72
2021/01/15 16:26:15;;;;;;;3.83;2.47;;;-2.80;99.90;;;;;;4956059;29;20031;-72
2021/01/15 16:28:41;;;;;;;2.38;1.95;;;-2.80;99.90;;;;;;4954910;29;20455;-72
2021/01/15 16:31:07;;;;;;;2.13;1.92;;;-2.90;99.90;;;;;;4956107;29;20031;-72
2021/01/15 16:33:35;;;;;;;3.42;2.13;;;-3.00;99.90;;;;;;4956530;29;20020;-73
2021/01/15 16:36:01;;;;;;;3.25;2.00;;;-3.00;99.90;;;;;;4956134;29;20031;-72
2021/01/15 16:38:27;;;;;;;3.42;2.50;;;-3.10;99.90;;;;;;4956524;28;20086;-72
2021/01/15 16:40:56;;;;;;;3.33;2.22;;;-3.10;99.90;;;;;;4956315;29;20036;-69
2021/01/15 16:43:22;;;;;;;1.45;1.35;;;-3.10;99.90;;;;;;4955599;29;20102;-72
2021/01/15 16:45:48;;;;;;;2.38;2.17;;;-3.20;99.90;;;;;;4956001;29;20050;-71
2021/01/15 16:48:14;;;;;;;2.72;2.10;;;-3.20;99.90;;;;;;4954076;29;20034;-72
2021/01/15 16:50:39;;;;;;;2.65;2.17;;;-3.20;99.90;;;;;;4956104;28;20039;-71
2021/01/15 16:53:09;;;;;;;10.32;6.10;;;-3.30;99.90;;;;;;4955823;29;20086;-70
2021/01/15 16:55:37;;;;;;;9.15;4.30;;;-3.30;99.90;;;;;;4955998;28;20027;-70
2021/01/15 16:58:07;;;;;;;8.25;3.92;;;-2.10;99.90;;;;;;4955762;28;20110;-70
2021/01/15 17:00:33;;;;;;;;;;;-2.10;99.90;;;;;;4955929;28;20043;-70
2021/01/15 17:02:59;;;;;;;4.40;2.55;;;-2.20;99.90;;;;;;4954364;29;19914;-70
2021/01/15 17:05:25;;;;;;;2.42;2.05;;;-2.10;99.90;;;;;;4955606;28;20023;-71